createdAt,value
2023-03-15T00:00:10.492Z,3.80
2023-03-15T00:02:39.343Z,4.00
2023-03-15T00:05:07.958Z,3.63
2023-03-15T00:07:35.916Z,3.43
2023-03-15T00:10:04.516Z,3.03
2023-03-15T00:12:34.361Z,2.80
2023-03-15T00:15:02.306Z,3.47
2023-03-15T00:17:30.230Z,3.43
2023-03-15T00:19:58.221Z,3.30
2023-03-15T00:22:26.402Z,2.67
2023-03-15T00:24:54.382Z,3.10
2023-03-15T00:27:22.456Z,2.83
2023-03-15T00:29:50.617Z,3.07
2023-03-15T00:32:18.588Z,2.10
2023-03-15T00:34:49.193Z,2.83
2023-03-15T00:37:19.635Z,3.23
2023-03-15T00:39:48.269Z,2.83
2023-03-15T00:42:16.243Z,2.90
2023-03-15T00:44:45.183Z,3.00
2023-03-15T00:47:14.837Z,2.73
2023-03-15T00:49:42.873Z,3.00
2023-03-15T00:52:12.573Z,2.47
2023-03-15T00:54:41.897Z,2.10
2023-03-15T00:57:10.291Z,2.03
2023-03-15T00:59:38.218Z,2.30
2023-03-15T01:02:07.250Z,2.07
2023-03-15T01:04:36.077Z,2.30
2023-03-15T01:07:05.474Z,2.60
2023-03-15T01:09:33.422Z,2.30
2023-03-15T01:12:01.464Z,2.63
2023-03-15T01:14:32.194Z,2.47
2023-03-15T01:17:00.124Z,3.23
2023-03-15T01:19:29.938Z,2.60
2023-03-15T01:21:57.963Z,3.60
2023-03-15T01:24:26.027Z,3.17
2023-03-15T01:26:53.988Z,3.23
2023-03-15T01:29:22.188Z,3.20
2023-03-15T01:31:50.598Z,2.87
2023-03-15T01:34:18.646Z,3.40
2023-03-15T01:36:52.538Z,2.70
2023-03-15T01:39:21.711Z,2.67
2023-03-15T01:41:49.694Z,2.40
2023-03-15T01:44:19.446Z,2.80
2023-03-15T01:46:48.888Z,2.23
2023-03-15T01:49:32.359Z,2.17
2023-03-15T01:52:08.706Z,2.20
2023-03-15T01:54:56.187Z,2.63
2023-03-15T01:57:32.867Z,2.27
2023-03-15T02:00:16.606Z,2.07
2023-03-15T02:03:07.397Z,2.20
2023-03-15T02:05:46.482Z,2.30
2023-03-15T02:08:22.681Z,2.28
2023-03-15T02:10:54.288Z,2.50
2023-03-15T02:13:38.137Z,1.47
2023-03-15T02:16:09.550Z,2.27
2023-03-15T02:18:44.012Z,2.58
2023-03-15T02:21:11.899Z,2.60
2023-03-15T02:23:40.493Z,2.83
2023-03-15T02:26:34.934Z,2.47
2023-03-15T02:29:03.314Z,2.70
2023-03-15T02:31:38.143Z,3.10
2023-03-15T02:34:07.696Z,2.72
2023-03-15T02:36:36.982Z,2.37
2023-03-15T02:39:20.770Z,3.00
2023-03-15T02:41:57.819Z,2.17
2023-03-15T02:44:35.686Z,2.27
2023-03-15T02:47:27.510Z,2.03
2023-03-15T02:49:55.592Z,2.80
2023-03-15T02:52:24.156Z,2.60
2023-03-15T02:54:52.162Z,3.37
2023-03-15T02:57:21.464Z,2.70
2023-03-15T02:59:51.018Z,3.10
2023-03-15T03:02:20.165Z,3.90
2023-03-15T03:04:48.302Z,3.03
2023-03-15T03:07:16.967Z,2.90
2023-03-15T03:09:52.184Z,3.17
2023-03-15T03:12:22.081Z,3.30
2023-03-15T03:14:50.020Z,3.57
2023-03-15T03:17:21.645Z,3.23
2023-03-15T03:19:50.177Z,3.50
2023-03-15T03:22:24.558Z,3.20
2023-03-15T03:24:53.092Z,3.63
2023-03-15T03:27:21.669Z,3.37
2023-03-15T03:29:50.765Z,3.23
2023-03-15T03:32:18.969Z,3.20
2023-03-15T03:34:48.373Z,3.50
2023-03-15T03:37:21.675Z,3.80
2023-03-15T03:39:56.089Z,3.37
2023-03-15T03:42:24.312Z,3.60
2023-03-15T03:44:54.452Z,4.00
2023-03-15T03:47:24.333Z,3.70
2023-03-15T03:49:52.595Z,3.80
2023-03-15T03:52:21.077Z,3.50
2023-03-15T03:54:51.628Z,4.13
2023-03-15T03:57:19.710Z,3.63
2023-03-15T03:59:47.673Z,2.40
2023-03-15T04:02:15.939Z,3.03
2023-03-15T04:04:54.929Z,3.77
2023-03-15T04:07:23.148Z,3.00
2023-03-15T04:09:51.456Z,2.63
2023-03-15T04:12:20.026Z,3.07
2023-03-15T04:14:48.821Z,3.00
2023-03-15T04:17:19.341Z,2.90
2023-03-15T04:19:47.398Z,2.63
2023-03-15T04:22:19.062Z,3.10
2023-03-15T04:24:59.006Z,2.60
2023-03-15T04:27:58.725Z,2.60
2023-03-15T04:30:59.368Z,2.40
2023-03-15T04:33:39.545Z,2.17
2023-03-15T04:36:07.708Z,2.43
2023-03-15T04:38:35.764Z,2.43
2023-03-15T04:41:27.024Z,2.70
2023-03-15T04:44:04.002Z,2.30
2023-03-15T04:46:59.909Z,2.50
2023-03-15T04:49:39.757Z,2.80
2023-03-15T04:52:32.266Z,2.57
2023-03-15T04:55:22.877Z,2.60
2023-03-15T04:58:16.241Z,2.40
2023-03-15T05:01:04.765Z,2.90
2023-03-15T05:03:51.207Z,2.93
2023-03-15T05:06:33.006Z,2.50
2023-03-15T05:09:21.980Z,2.87
2023-03-15T05:12:24.537Z,2.73
2023-03-15T05:15:13.065Z,2.83
2023-03-15T05:18:07.365Z,2.87
2023-03-15T05:20:55.873Z,2.77
2023-03-15T05:23:36.485Z,2.70
2023-03-15T05:26:24.938Z,2.73
2023-03-15T05:29:13.167Z,3.50
2023-03-15T05:31:53.826Z,2.50
2023-03-15T05:34:45.260Z,2.10
2023-03-15T05:37:26.845Z,2.20
2023-03-15T05:40:13.678Z,2.83
2023-03-15T05:42:51.668Z,1.57
2023-03-15T05:45:19.550Z,1.93
2023-03-15T05:47:58.660Z,0.77
2023-03-15T05:50:37.955Z,0.97
2023-03-15T05:53:24.342Z,0.90
2023-03-15T05:55:58.072Z,1.00
2023-03-15T05:58:26.263Z,0.70
2023-03-15T06:01:18.057Z,0.93
2023-03-15T06:04:01.110Z,1.03
2023-03-15T06:06:33.799Z,1.00
2023-03-15T06:09:04.506Z,1.10
2023-03-15T06:11:33.732Z,0.97
2023-03-15T06:14:03.399Z,1.20
2023-03-15T06:22:35.020Z,1.10
2023-03-15T06:25:17.597Z,1.30
2023-03-15T06:27:52.526Z,1.57
2023-03-15T06:35:46.922Z,1.30
2023-03-15T06:38:19.409Z,1.57
2023-03-15T06:40:47.993Z,1.20
2023-03-15T06:43:19.740Z,1.60
2023-03-15T06:45:49.456Z,1.20
2023-03-15T06:48:18.258Z,1.60
2023-03-15T06:50:47.898Z,1.50
2023-03-15T06:53:17.752Z,1.63
2023-03-15T06:55:46.788Z,1.52
2023-03-15T06:58:15.372Z,1.85
2023-03-15T07:00:44.409Z,2.00
2023-03-15T07:03:12.306Z,1.90
2023-03-15T07:05:40.194Z,1.80
2023-03-15T07:08:08.172Z,1.90
2023-03-15T07:10:36.566Z,2.00
2023-03-15T07:13:07.001Z,1.90
2023-03-15T07:15:37.252Z,1.88
2023-03-15T07:18:05.619Z,2.13
2023-03-15T07:20:36.223Z,2.00
2023-03-15T07:23:05.871Z,2.40
2023-03-15T07:25:44.981Z,2.28
2023-03-15T07:28:20.852Z,2.20
2023-03-15T07:31:00.229Z,2.30
2023-03-15T07:33:31.061Z,2.28
2023-03-15T07:35:59.366Z,2.25
2023-03-15T07:38:31.684Z,1.80
2023-03-15T07:41:02.858Z,1.77
2023-03-15T07:43:31.317Z,1.50
2023-03-15T07:46:18.571Z,1.95
2023-03-15T07:48:46.607Z,1.27
2023-03-15T07:51:14.561Z,1.40
2023-03-15T07:53:42.562Z,1.58
2023-03-15T07:56:10.837Z,1.60
2023-03-15T07:58:38.884Z,1.58
2023-03-15T08:01:07.166Z,1.50
2023-03-15T08:03:35.907Z,1.30
2023-03-15T08:06:04.336Z,1.30
2023-03-15T08:08:32.237Z,1.23
2023-03-15T08:11:00.370Z,1.10
2023-03-15T08:13:28.484Z,1.15
2023-03-15T08:15:56.560Z,1.30
2023-03-15T08:18:24.789Z,0.95
2023-03-15T08:20:52.988Z,1.00
2023-03-15T08:23:21.897Z,0.88
2023-03-15T08:25:50.286Z,1.20
2023-03-15T08:28:18.519Z,0.90
2023-03-15T08:30:46.743Z,1.13
2023-03-15T08:33:14.752Z,1.02
2023-03-15T08:35:42.906Z,1.00
2023-03-15T08:38:10.958Z,0.90
2023-03-15T08:40:39.868Z,1.63
2023-03-15T08:43:07.926Z,1.20
2023-03-15T08:45:51.088Z,0.85
2023-03-15T08:48:25.561Z,1.60
2023-03-15T08:50:54.525Z,0.95
2023-03-15T08:53:22.608Z,1.35
2023-03-15T08:55:50.952Z,0.80
2023-03-15T08:58:19.046Z,1.30
2023-03-15T09:00:48.642Z,1.08
2023-03-15T09:03:16.823Z,1.08
2023-03-15T09:05:44.993Z,0.82
2023-03-15T09:08:14.164Z,0.93
2023-03-15T09:10:42.501Z,1.00
2023-03-15T09:13:11.172Z,1.00
2023-03-15T09:15:39.164Z,1.00
2023-03-15T09:18:07.281Z,0.82
2023-03-15T09:20:35.418Z,0.77
2023-03-15T09:23:03.366Z,1.00
2023-03-15T09:25:31.336Z,0.75
2023-03-15T09:27:59.500Z,1.02
2023-03-15T09:30:28.872Z,0.80
2023-03-15T09:32:57.065Z,1.40
2023-03-15T09:35:25.288Z,0.90
2023-03-15T09:37:53.645Z,1.00
2023-03-15T09:40:30.829Z,0.88
2023-03-15T09:43:07.952Z,1.17
2023-03-15T09:45:57.665Z,0.93
2023-03-15T09:48:35.557Z,1.10
2023-03-15T09:51:12.524Z,0.80
2023-03-15T09:53:43.382Z,0.85
2023-03-15T09:56:37.070Z,0.82
2023-03-15T09:59:06.159Z,1.10
2023-03-15T10:01:38.551Z,1.60
2023-03-15T10:04:27.468Z,1.10
2023-03-15T10:06:59.164Z,1.27
2023-03-15T10:09:34.966Z,1.25
2023-03-15T10:12:06.307Z,1.00
2023-03-15T10:15:21.740Z,1.02
2023-03-15T10:18:01.721Z,1.30
2023-03-15T10:20:35.936Z,1.08
2023-03-15T10:23:20.082Z,0.75
2023-03-15T10:25:51.541Z,1.10
2023-03-15T10:28:33.839Z,1.02
2023-03-15T10:31:25.720Z,1.05
2023-03-15T10:33:58.213Z,1.02
2023-03-15T10:36:26.871Z,1.30
2023-03-15T10:38:55.053Z,1.20
2023-03-15T10:41:41.184Z,1.00
2023-03-15T10:44:24.457Z,1.20
2023-03-15T10:47:23.194Z,1.10
2023-03-15T10:49:58.480Z,1.35
2023-03-15T10:52:35.515Z,1.15
2023-03-15T10:55:07.569Z,1.20
2023-03-15T10:57:39.636Z,1.23
2023-03-15T11:00:24.050Z,1.17
2023-03-15T11:03:07.252Z,1.40
2023-03-15T11:05:45.098Z,1.70
2023-03-15T11:08:19.845Z,1.40
2023-03-15T11:10:57.767Z,1.10
2023-03-15T11:13:31.432Z,1.30
2023-03-15T11:16:18.693Z,1.42
2023-03-15T11:18:59.762Z,1.20
2023-03-15T11:21:36.851Z,1.40
2023-03-15T11:24:06.824Z,1.33
2023-03-15T11:26:38.262Z,1.30
2023-03-15T11:29:19.178Z,1.67
2023-03-15T11:31:47.772Z,1.30
2023-03-15T11:34:39.102Z,1.45
2023-03-15T11:37:13.780Z,1.40
2023-03-15T11:40:10.886Z,1.67
2023-03-15T11:42:51.002Z,1.52
2023-03-15T11:45:41.149Z,1.40
2023-03-15T11:48:47.556Z,1.20
2023-03-15T11:51:16.069Z,1.60
2023-03-15T11:54:21.113Z,1.13
2023-03-15T11:57:01.600Z,1.77
2023-03-15T11:59:33.784Z,1.40
2023-03-15T12:02:10.913Z,0.85
2023-03-15T12:04:47.984Z,1.30
2023-03-15T12:07:19.056Z,1.38
2023-03-15T12:09:56.469Z,1.30
2023-03-15T12:12:27.505Z,1.50
2023-03-15T12:15:27.502Z,1.15
2023-03-15T12:18:06.362Z,1.20
2023-03-15T12:21:04.383Z,1.02
2023-03-15T12:23:46.476Z,1.02
2023-03-15T12:26:24.301Z,1.05
2023-03-15T12:29:05.187Z,1.10
2023-03-15T12:32:02.398Z,1.30
2023-03-15T12:34:42.795Z,1.20
2023-03-15T12:37:15.049Z,1.10
2023-03-15T12:39:45.044Z,0.90
2023-03-15T12:42:31.580Z,1.00
2023-03-15T12:45:17.915Z,1.13
2023-03-15T12:47:52.146Z,1.20
2023-03-15T12:50:45.759Z,1.02
2023-03-15T12:53:27.874Z,1.08
2023-03-15T12:56:07.907Z,1.13
2023-03-15T12:58:41.160Z,1.00
2023-03-15T13:01:16.295Z,1.35
2023-03-15T13:03:44.688Z,1.10
2023-03-15T13:06:58.782Z,1.00
2023-03-15T13:09:53.900Z,0.93
2023-03-15T13:12:31.709Z,1.00
2023-03-15T13:15:06.530Z,1.00
2023-03-15T13:17:50.730Z,0.90
2023-03-15T13:20:40.189Z,0.80
2023-03-15T13:23:17.665Z,0.90
2023-03-15T13:26:11.613Z,1.15
2023-03-15T13:28:50.738Z,0.90
2023-03-15T13:31:24.588Z,0.90
2023-03-15T13:33:57.875Z,1.05
2023-03-15T13:36:41.343Z,1.20
2023-03-15T13:39:23.477Z,0.95
2023-03-15T13:42:17.117Z,1.08
2023-03-15T13:44:45.721Z,1.20
2023-03-15T13:47:22.030Z,1.00
2023-03-15T13:49:53.100Z,1.13
2023-03-15T13:52:23.750Z,1.33
2023-03-15T13:54:53.889Z,1.20
2023-03-15T13:57:23.708Z,0.80
2023-03-15T14:00:00.809Z,1.30
2023-03-15T14:02:58.395Z,0.80
2023-03-15T14:05:33.711Z,1.08
2023-03-15T14:08:15.273Z,0.82
2023-03-15T14:10:43.280Z,1.30
2023-03-15T14:13:32.174Z,1.40
2023-03-15T14:16:06.057Z,1.20
2023-03-15T14:18:40.718Z,1.20
2023-03-15T14:21:12.105Z,0.95
2023-03-15T14:23:43.229Z,1.05
2023-03-15T14:26:14.470Z,1.15
2023-03-15T14:28:47.022Z,1.20
2023-03-15T14:31:26.774Z,1.40
2023-03-15T14:34:25.260Z,1.33
2023-03-15T14:36:57.429Z,1.30
2023-03-15T14:39:28.122Z,1.10
2023-03-15T14:41:56.442Z,1.15
2023-03-15T14:44:24.511Z,1.42
2023-03-15T14:46:53.974Z,1.10
2023-03-15T14:49:26.965Z,1.00
2023-03-15T14:52:02.912Z,1.02
2023-03-15T14:54:36.724Z,1.27
2023-03-15T14:57:04.847Z,1.20
2023-03-15T14:59:32.845Z,1.00
2023-03-15T15:02:03.311Z,1.02
2023-03-15T15:04:34.418Z,0.90
2023-03-15T15:07:03.238Z,0.85
2023-03-15T15:09:31.651Z,1.45
2023-03-15T15:11:59.565Z,1.70
2023-03-15T15:14:29.026Z,1.30
2023-03-15T15:16:57.192Z,1.08
2023-03-15T15:19:25.407Z,1.48
2023-03-15T15:21:53.581Z,1.30
2023-03-15T15:24:25.356Z,1.38
2023-03-15T15:26:55.429Z,1.23
2023-03-15T15:29:24.305Z,1.20
2023-03-15T15:31:52.587Z,1.15
2023-03-15T15:34:20.800Z,1.42
2023-03-15T15:36:48.824Z,1.20
2023-03-15T15:39:30.133Z,1.23
2023-03-15T15:41:59.871Z,1.10
2023-03-15T15:44:28.127Z,1.10
2023-03-15T15:46:56.170Z,1.00
2023-03-15T15:49:24.596Z,1.00
2023-03-15T15:51:52.930Z,1.27
2023-03-15T15:54:27.616Z,1.45
2023-03-15T15:57:00.762Z,0.93
2023-03-15T15:59:29.772Z,1.23
2023-03-15T16:02:01.527Z,1.60
2023-03-15T16:04:31.032Z,1.25
2023-03-15T16:07:02.438Z,1.30
2023-03-15T16:09:35.383Z,1.25
2023-03-15T16:12:11.008Z,1.10
2023-03-15T16:14:39.728Z,1.02
2023-03-15T16:17:14.863Z,1.58
2023-03-15T16:19:45.718Z,1.55
2023-03-15T16:22:14.233Z,1.20
2023-03-15T16:24:45.590Z,1.30
2023-03-15T16:27:16.022Z,1.00
2023-03-15T16:29:47.537Z,1.52
2023-03-15T16:32:32.908Z,1.67
2023-03-15T16:35:07.426Z,1.30
2023-03-15T16:37:36.124Z,1.30
2023-03-15T16:40:09.946Z,1.48
2023-03-15T16:42:38.032Z,1.38
2023-03-15T16:45:13.581Z,1.50
2023-03-15T16:47:44.116Z,1.20
2023-03-15T16:50:12.704Z,1.58
2023-03-15T16:52:42.156Z,1.10
2023-03-15T16:55:17.234Z,1.90
2023-03-15T17:00:22.098Z,1.27
2023-03-15T17:02:54.609Z,2.05
2023-03-15T17:05:24.861Z,2.10
2023-03-15T17:07:55.486Z,1.58
2023-03-15T17:10:27.520Z,1.60
2023-03-15T17:12:58.608Z,1.23
2023-03-15T17:15:27.941Z,1.30
2023-03-15T17:18:00.560Z,1.42
2023-03-15T17:20:30.628Z,1.40
2023-03-15T17:23:04.246Z,1.52
2023-03-15T17:25:38.949Z,1.77
2023-03-15T17:28:10.198Z,1.55
2023-03-15T17:30:41.550Z,1.58
2023-03-15T17:33:09.880Z,1.50
2023-03-15T17:35:47.485Z,1.67
2023-03-15T17:38:21.800Z,1.55
2023-03-15T17:40:50.820Z,1.60
2023-03-15T17:43:19.139Z,1.50
2023-03-15T17:45:47.874Z,1.25
2023-03-15T17:48:15.846Z,1.77
2023-03-15T17:50:45.565Z,1.42
2023-03-15T17:53:19.071Z,1.90
2023-03-15T17:55:48.300Z,1.52
2023-03-15T17:58:25.257Z,1.50
2023-03-15T18:00:55.051Z,1.88
2023-03-15T18:03:24.146Z,2.08
2023-03-15T18:05:52.659Z,3.65
2023-03-15T18:08:21.674Z,3.70
2023-03-15T18:10:51.680Z,3.45
2023-03-15T18:13:26.457Z,2.55
2023-03-15T18:15:55.201Z,5.00
2023-03-15T18:18:23.673Z,3.90
2023-03-15T18:20:52.154Z,4.18
2023-03-15T18:23:20.299Z,4.28
2023-03-15T18:25:48.456Z,3.28
2023-03-15T18:28:16.923Z,3.05
2023-03-15T18:30:45.454Z,3.65
2023-03-15T18:33:15.602Z,3.38
2023-03-15T18:35:44.214Z,3.70
2023-03-15T18:38:12.406Z,3.22
2023-03-15T18:40:40.797Z,4.28
2023-03-15T18:43:12.327Z,3.15
2023-03-15T18:45:40.801Z,3.67
2023-03-15T18:48:08.873Z,4.55
2023-03-15T18:50:37.119Z,4.45
2023-03-15T18:53:06.406Z,4.68
2023-03-15T18:55:35.096Z,4.97
2023-03-15T18:58:04.390Z,4.68
2023-03-15T19:00:36.260Z,3.80
2023-03-15T19:03:06.246Z,4.03
2023-03-15T19:05:37.810Z,3.38
2023-03-15T19:08:06.190Z,3.20
2023-03-15T19:10:36.372Z,3.00
2023-03-15T19:13:04.890Z,3.90
2023-03-15T19:15:33.321Z,3.58
2023-03-15T19:18:02.042Z,4.22
2023-03-15T19:20:30.417Z,3.08
2023-03-15T19:22:58.630Z,3.35
2023-03-15T19:25:26.731Z,3.17
2023-03-15T19:27:54.956Z,3.47
2023-03-15T19:30:22.932Z,3.22
2023-03-15T19:32:53.413Z,3.25
2023-03-15T19:35:22.025Z,3.17
2023-03-15T19:37:50.624Z,3.35
2023-03-15T19:40:20.064Z,3.00
2023-03-15T19:42:49.003Z,2.70
2023-03-15T19:45:18.241Z,3.15
2023-03-15T19:47:47.123Z,2.65
2023-03-15T19:50:16.639Z,3.25
2023-03-15T19:52:47.778Z,3.63
2023-03-15T19:55:18.247Z,4.05
2023-03-15T19:57:46.339Z,3.65
2023-03-15T20:00:16.476Z,3.30
2023-03-15T20:02:45.588Z,3.17
2023-03-15T20:05:17.262Z,2.88
2023-03-15T20:07:46.296Z,3.60
2023-03-15T20:10:14.893Z,3.40
2023-03-15T20:12:45.599Z,3.50
2023-03-15T20:15:16.174Z,3.53
2023-03-15T20:17:44.648Z,3.17
2023-03-15T20:20:14.742Z,3.13
2023-03-15T20:22:48.007Z,3.28
2023-03-15T20:25:19.243Z,2.90
2023-03-15T20:27:47.598Z,2.95
2023-03-15T20:30:17.329Z,2.92
2023-03-15T20:32:45.528Z,2.78
2023-03-15T20:35:14.281Z,3.10
2023-03-15T20:37:42.931Z,3.38
2023-03-15T20:40:14.591Z,2.90
2023-03-15T20:42:43.499Z,2.88
2023-03-15T20:45:13.022Z,3.20
2023-03-15T20:47:42.148Z,3.30
2023-03-15T20:50:11.916Z,3.00
2023-03-15T20:52:43.357Z,3.42
2023-03-15T20:55:12.417Z,3.25
2023-03-15T20:57:43.897Z,3.30
2023-03-15T21:00:20.862Z,3.30
2023-03-15T21:02:49.641Z,3.03
2023-03-15T21:05:20.382Z,3.30
2023-03-15T21:07:48.540Z,2.55
2023-03-15T21:10:17.149Z,3.30
2023-03-15T21:12:46.596Z,3.25
2023-03-15T21:15:18.012Z,2.67
2023-03-15T21:17:49.449Z,3.10
2023-03-15T21:20:18.483Z,2.63
2023-03-15T21:22:47.909Z,3.42
2023-03-15T21:25:17.193Z,2.55
2023-03-15T21:27:46.121Z,3.22
2023-03-15T21:30:15.177Z,4.03
2023-03-15T21:32:43.775Z,3.70
2023-03-15T21:35:12.226Z,3.22
2023-03-15T21:37:40.756Z,3.83
2023-03-15T21:40:10.911Z,3.47
2023-03-15T21:42:39.963Z,2.92
2023-03-15T21:45:09.392Z,3.40
2023-03-15T21:47:37.653Z,2.90
2023-03-15T21:50:06.561Z,3.10
2023-03-15T21:52:34.593Z,3.58
2023-03-15T21:55:02.603Z,4.63
2023-03-15T21:57:33.714Z,2.90
2023-03-15T22:00:01.827Z,3.30
2023-03-15T22:02:40.934Z,3.25
2023-03-15T22:05:11.901Z,3.03
2023-03-15T22:07:41.104Z,3.13
2023-03-15T22:10:10.025Z,3.47
2023-03-15T22:12:38.501Z,3.03
2023-03-15T22:15:07.709Z,3.22
2023-03-15T22:17:36.449Z,3.67
2023-03-15T22:20:09.439Z,3.03
2023-03-15T22:22:38.189Z,3.15
2023-03-15T22:25:06.674Z,3.28
2023-03-15T22:27:34.589Z,3.22
2023-03-15T22:30:03.426Z,3.22
2023-03-15T22:32:31.390Z,2.97
2023-03-15T22:34:59.372Z,3.50
2023-03-15T22:37:27.601Z,3.42
2023-03-15T22:39:55.536Z,3.28
2023-03-15T22:42:23.546Z,2.78
2023-03-15T22:44:51.588Z,3.30
2023-03-15T22:47:19.556Z,2.47
2023-03-15T22:49:47.456Z,2.60
2023-03-15T22:52:15.921Z,3.30
2023-03-15T22:54:45.245Z,2.70
2023-03-15T22:57:13.296Z,2.90
2023-03-15T22:59:41.279Z,2.65
2023-03-15T23:02:09.541Z,2.75
2023-03-15T23:04:37.476Z,2.78
2023-03-15T23:07:05.801Z,2.15
2023-03-15T23:09:33.872Z,2.40
2023-03-15T23:12:01.960Z,2.10
2023-03-15T23:14:29.944Z,1.92
2023-03-15T23:16:57.913Z,2.47
2023-03-15T23:19:26.279Z,2.30
2023-03-15T23:21:54.585Z,2.22
2023-03-15T23:24:24.766Z,1.88
2023-03-15T23:26:56.518Z,2.25
2023-03-15T23:29:24.615Z,2.10
2023-03-15T23:31:52.561Z,2.28
2023-03-15T23:34:22.696Z,2.25
2023-03-15T23:36:51.397Z,2.92
2023-03-15T23:39:20.534Z,2.67
2023-03-15T23:41:48.712Z,2.60
2023-03-15T23:44:17.131Z,3.15
2023-03-15T23:46:45.146Z,2.53
2023-03-15T23:49:13.130Z,2.35
2023-03-15T23:51:43.825Z,2.97
2023-03-15T23:54:13.918Z,2.05
2023-03-15T23:56:41.967Z,2.80
2023-03-15T23:59:11.880Z,3.30
